(°C)
(°C)
-6°
-6°
-6°
-5°
-5°
-4°
-4°
SSE
SSE
SSE
SSE
SSE
SSE
SSE
(km/h)
32-51
30-47
28-48
27-44
25-38
23-34
22-32
(mm)
1
1
0
0
0
0
0
(%)
97
72
55
41
33
17
3

Elevazione del sole

/ -5.1°
sun-icon
UV 0
08:28
16:27
Luna calante (307°)
02:35
14:48

METAR per 53.5°N 50.15°E (UWWW)

Ora Condizioni Temperatura/
Punto di rugiada
Vento Visibilità Tempo Nuvole Pressione Cambiamento Grezzo
IFR 2°C / 0°C 200º 19kt 7000m Light Rain 1.00mm precipitation Vertical Visibility of 0ft. 995 No Significant change. Runway 15: Wet or puddles, 51-100% contamination with 1mm, friction coefficient 0.57. UWWW 301230Z 20010MPS 7000 -RA OVC005 02/M00 Q0995 R15/290157 NOSIG RMK QFE735/0980
IFR 2°C / 0°C 210º 14kt 4900m Light Rain 1.00mm precipitation Vertical Visibility of 0ft. 995 No Significant change. Runway 15: Wet or puddles, 51-100% contamination with 1mm, friction coefficient 0.57. UWWW 301200Z 21007MPS 4900 -RA OVC005 02/M00 Q0995 R15/290157 NOSIG RMK QFE735/0980
IFR 2°C / 0°C 200º 14kt 4300m Light Rain 1.00mm precipitation Vertical Visibility of 0ft. 995 No Significant change. Runway 15: Wet or puddles, 51-100% contamination with 1mm, friction coefficient 0.57. UWWW 301130Z 20007MPS 4300 -RA OVC005 02/M00 Q0995 R15/290157 NOSIG RMK QFE735/0980
IFR 1°C / -1°C 200º 17kt 6000m Light Rain 1.00mm precipitation Vertical Visibility of 0ft. 995 No Significant change. Runway 15: Wet or puddles, 51-100% contamination with 1mm, friction coefficient 0.57. UWWW 301100Z 20009MPS 6000 -RA OVC006 01/M01 Q0995 R15/290157 NOSIG RMK QFE735/0980
IFR 1°C / -1°C 180º 17kt 7000m Light Rain 1.00mm precipitation Vertical Visibility of 0ft. 995 Temporary: 17018MPS RMK QFE735/0980 . Runway 15: Wet or puddles, 51-100% contamination with 1mm, friction coefficient 0.57. UWWW 301030Z 18009MPS 7000 -RA OVC007 01/M01 Q0995 R15/290157 TEMPO 17018MPS RMK QFE735/0980
IFR 1°C / -1°C 200º 17kt 6000m Light Rain 1.00mm precipitation Vertical Visibility of 0ft. 996 Temporary: 17018MPS RMK QFE736/0981 . Runway 15: Wet or puddles, 51-100% contamination with 1mm, friction coefficient 0.57. UWWW 301000Z 20009MPS 6000 -RA OVC008 01/M01 Q0996 R15/290157 TEMPO 17018MPS RMK QFE736/0981
IFR 1°C / -1°C 180º 17kt 7000m Light Rain 1.00mm precipitation Vertical Visibility of 0ft. 996 No Significant change. Runway 15: Wet or puddles, 51-100% contamination with 1mm, friction coefficient 0.57. UWWW 300930Z 18009MPS 7000 -RA OVC007 01/M01 Q0996 R15/290157 NOSIG RMK QFE735/0981
IFR 1°C / -1°C 180º 16kt 8000m Light Rain 1.00mm precipitation Vertical Visibility of 0ft. 996 No Significant change. Runway 15: Wet or puddles, 51-100% contamination with 1mm, friction coefficient 0.57. UWWW 300900Z 18008MPS 8000 -RA OVC009 01/M01 Q0996 R15/290157 NOSIG RMK QFE736/0981
MVFR 2°C / -1°C 170º 17kt 9000m Light Rain 1.00mm precipitation Vertical Visibility of 0ft. 996 No Significant change. Runway 15: Frost, 51-100% contamination with 1mm, friction coefficient 0.38. UWWW 300830Z 17009MPS 9000 -RA BKN010 02/M01 Q0996 R15/390138 NOSIG RMK QFE736/0981
MVFR 1°C / -1°C 150º 16kt >10km Light Rain 1.00mm precipitation Vertical Visibility of 0ft. 997 No Significant change. Runway 15: Frost, 51-100% contamination with 1mm, friction coefficient 0.38. UWWW 300800Z 15008MPS 9999 -RA BKN010 01/M01 Q0997 R15/390138 NOSIG RMK QFE736/0982
IFR 2°C / -1°C 150º 17kt 9000m Light Rain 1.00mm precipitation Vertical Visibility of 0ft. 998 No Significant change. Runway 15: Frost, 51-100% contamination with 1mm, friction coefficient 0.38. UWWW 300730Z 15009MPS 9000 -RA OVC008 02/M01 Q0998 R15/390138 NOSIG RMK QFE737/0983
MVFR 1°C / -1°C 160º 16kt 5000m Light Showers Rain 3.00mm precipitation Vertical Visibility of 0ft. 999 No Significant change. Runway 15: Frost, 51-100% contamination with 1mm, friction coefficient 0.38. UWWW 300700Z 16008MPS 5000 -SHRA BKN010CB 01/M01 Q0999 R15/390138 NOSIG RMK QFE738/0984
MVFR 1°C / -2°C 170º 16kt 7000m Light Showers Rain 3.00mm precipitation Vertical Visibility of 0ft. 1000 No Significant change. Runway 15: Frost, 51-100% contamination with 1mm, friction coefficient 0.38. UWWW 300630Z 17008MPS 7000 -SHRA BKN013CB 01/M02 Q1000 R15/390138 NOSIG RMK QFE739/0985
VFR 1°C / -2°C 160º 16kt 9000m Light Rain 1.00mm precipitation Vertical Visibility of 0ft. 1001 No Significant change. Runway 15: Frost, 51-100% contamination with 1mm, friction coefficient 0.38. UWWW 300600Z 16008MPS 9000 -RA SCT026 01/M02 Q1001 R15/390138 NOSIG RMK QFE739/0986
VFR 1°C / -3°C 170º 19kt >10km Light Rain 1.00mm precipitation Vertical Visibility of 0ft. 1001 No Significant change. Runway 15: Frost, 51-100% contamination with 1mm, friction coefficient 0.38. UWWW 300530Z 17010MPS 9999 -RA SCT033 01/M03 Q1001 R15/390138 NOSIG RMK QFE739/0986
VFR 0°C / -3°C 170º 19kt >10km Light freezing Rain 3.00mm precipitation Vertical Visibility of 0ft. 1002 No Significant change. Runway 15: Frost, 51-100% contamination with 1mm, friction coefficient 0.38. UWWW 300500Z 17010MPS 9999 -FZRA SCT033 M00/M03 Q1002 R15/390138 NOSIG RMK QFE740/0987
VFR 0°C / -4°C 170º 21kt >10km Light freezing Rain 3.00mm precipitation Vertical Visibility of 0ft. 1003 No Significant change. Runway 15: Frost, 51-100% contamination with 1mm, friction coefficient 0.38. UWWW 300430Z 17011MPS 9999 -FZRA SCT033 M00/M04 Q1003 R15/390138 NOSIG RMK QFE741/0988
VFR 0°C / -4°C 150º 17kt Gust 27kt >10km Light freezing Rain 3.00mm precipitation Vertical Visibility of 0ft. 1001 No Significant change. Runway 15: Frost, 51-100% contamination with 1mm, friction coefficient 0.38. UWWW 300400Z 15009G14MPS 9999 -FZRA SCT033 M00/M04 Q1001 R15/390138 NOSIG RMK QFE740/0986
VFR 0°C / -4°C 150º 16kt >10km Light freezing Rain 3.00mm precipitation Vertical Visibility of 0ft. 1003 No Significant change. Runway 15: Frost, 51-100% contamination with 1mm, friction coefficient 0.38. UWWW 300330Z 15008MPS 9999 -FZRA SCT033 M00/M04 Q1003 R15/390138 NOSIG RMK QFE740/0987
VFR -1°C / -4°C 150º 14kt >10km Light freezing Rain 3.00mm precipitation Vertical Visibility of 0ft. 1003 No Significant change. Runway 15: Wet snow, 51-100% contamination with 2mm, friction coefficient 0.40. UWWW 300300Z 15007MPS 9999 -FZRA SCT033 M01/M04 Q1003 R15/590240 NOSIG RMK QFE741/0988
VFR 0°C / -3°C 140º 17kt 9000m Light Rain 1.00mm precipitation Vertical Visibility of 0ft. 1004 No Significant change. Runway 15: Wet snow, 51-100% contamination with 2mm, friction coefficient 0.40. UWWW 300230Z 14009MPS 9000 -RA SCT033 00/M03 Q1004 R15/590240 NOSIG RMK QFE742/0989
MVFR 0°C / -3°C 140º 16kt >10km Light Rain 1.00mm precipitation Vertical Visibility of 0ft. 1005 Temporary: 15016MPS RMK QFE743/0990 . Runway 15: Wet snow, 26-50% contamination with 2mm, friction coefficient 0.50. UWWW 300200Z 14008MPS 9999 -RA BKN020 00/M03 Q1005 R15/550250 TEMPO 15016MPS RMK QFE743/0990
MVFR 0°C / -4°C 150º 16kt >10km Light Rain 1.00mm precipitation Vertical Visibility of 0ft. 1006 Temporary: 15016MPS RMK QFE743/0991 . Runway 15: Wet snow, 26-50% contamination with 2mm, friction coefficient 0.50. UWWW 300130Z 15008MPS 9999 -RA BKN018 00/M04 Q1006 R15/550250 TEMPO 15016MPS RMK QFE743/0991
MVFR 1°C / -3°C 140º 17kt >10km - Broken Clouds 1700ft 1006 Temporary: 15016MPS RMK QFE743/0991 . Runway 15: Wet snow, 26-50% contamination with 2mm, friction coefficient 0.50. UWWW 300100Z 14009MPS 9999 BKN017 01/M03 Q1006 R15/550250 TEMPO 15016MPS RMK QFE743/0991

IFR

2°C / 0°C

[Più]
Vento 200º 19kt
Visibilità 7000m
Tempo Light Rain 1.00mm precipitation
Nuvole Vertical Visibility of 0ft.
Pressione 995
Cambiamento No Significant change. Runway 15: Wet or puddles, 51-100% contamination with 1mm, friction coefficient 0.57.
Grezzo UWWW 301230Z 20010MPS 7000 -RA OVC005 02/M00 Q0995 R15/290157 NOSIG RMK QFE735/0980

IFR

2°C / 0°C

[Più]
Vento 210º 14kt
Visibilità 4900m
Tempo Light Rain 1.00mm precipitation
Nuvole Vertical Visibility of 0ft.
Pressione 995
Cambiamento No Significant change. Runway 15: Wet or puddles, 51-100% contamination with 1mm, friction coefficient 0.57.
Grezzo UWWW 301200Z 21007MPS 4900 -RA OVC005 02/M00 Q0995 R15/290157 NOSIG RMK QFE735/0980

IFR

2°C / 0°C

[Più]
Vento 200º 14kt
Visibilità 4300m
Tempo Light Rain 1.00mm precipitation
Nuvole Vertical Visibility of 0ft.
Pressione 995
Cambiamento No Significant change. Runway 15: Wet or puddles, 51-100% contamination with 1mm, friction coefficient 0.57.
Grezzo UWWW 301130Z 20007MPS 4300 -RA OVC005 02/M00 Q0995 R15/290157 NOSIG RMK QFE735/0980

IFR

1°C / -1°C

[Più]
Vento 200º 17kt
Visibilità 6000m
Tempo Light Rain 1.00mm precipitation
Nuvole Vertical Visibility of 0ft.
Pressione 995
Cambiamento No Significant change. Runway 15: Wet or puddles, 51-100% contamination with 1mm, friction coefficient 0.57.
Grezzo UWWW 301100Z 20009MPS 6000 -RA OVC006 01/M01 Q0995 R15/290157 NOSIG RMK QFE735/0980

IFR

1°C / -1°C

[Più]
Vento 180º 17kt
Visibilità 7000m
Tempo Light Rain 1.00mm precipitation
Nuvole Vertical Visibility of 0ft.
Pressione 995
Cambiamento Temporary: 17018MPS RMK QFE735/0980 . Runway 15: Wet or puddles, 51-100% contamination with 1mm, friction coefficient 0.57.
Grezzo UWWW 301030Z 18009MPS 7000 -RA OVC007 01/M01 Q0995 R15/290157 TEMPO 17018MPS RMK QFE735/0980

IFR

1°C / -1°C

[Più]
Vento 200º 17kt
Visibilità 6000m
Tempo Light Rain 1.00mm precipitation
Nuvole Vertical Visibility of 0ft.
Pressione 996
Cambiamento Temporary: 17018MPS RMK QFE736/0981 . Runway 15: Wet or puddles, 51-100% contamination with 1mm, friction coefficient 0.57.
Grezzo UWWW 301000Z 20009MPS 6000 -RA OVC008 01/M01 Q0996 R15/290157 TEMPO 17018MPS RMK QFE736/0981

IFR

1°C / -1°C

[Più]
Vento 180º 17kt
Visibilità 7000m
Tempo Light Rain 1.00mm precipitation
Nuvole Vertical Visibility of 0ft.
Pressione 996
Cambiamento No Significant change. Runway 15: Wet or puddles, 51-100% contamination with 1mm, friction coefficient 0.57.
Grezzo UWWW 300930Z 18009MPS 7000 -RA OVC007 01/M01 Q0996 R15/290157 NOSIG RMK QFE735/0981

IFR

1°C / -1°C

[Più]
Vento 180º 16kt
Visibilità 8000m
Tempo Light Rain 1.00mm precipitation
Nuvole Vertical Visibility of 0ft.
Pressione 996
Cambiamento No Significant change. Runway 15: Wet or puddles, 51-100% contamination with 1mm, friction coefficient 0.57.
Grezzo UWWW 300900Z 18008MPS 8000 -RA OVC009 01/M01 Q0996 R15/290157 NOSIG RMK QFE736/0981

MVFR

2°C / -1°C

[Più]
Vento 170º 17kt
Visibilità 9000m
Tempo Light Rain 1.00mm precipitation
Nuvole Vertical Visibility of 0ft.
Pressione 996
Cambiamento No Significant change. Runway 15: Frost, 51-100% contamination with 1mm, friction coefficient 0.38.
Grezzo UWWW 300830Z 17009MPS 9000 -RA BKN010 02/M01 Q0996 R15/390138 NOSIG RMK QFE736/0981

MVFR

1°C / -1°C

[Più]
Vento 150º 16kt
Visibilità >10km
Tempo Light Rain 1.00mm precipitation
Nuvole Vertical Visibility of 0ft.
Pressione 997
Cambiamento No Significant change. Runway 15: Frost, 51-100% contamination with 1mm, friction coefficient 0.38.
Grezzo UWWW 300800Z 15008MPS 9999 -RA BKN010 01/M01 Q0997 R15/390138 NOSIG RMK QFE736/0982

IFR

2°C / -1°C

[Più]
Vento 150º 17kt
Visibilità 9000m
Tempo Light Rain 1.00mm precipitation
Nuvole Vertical Visibility of 0ft.
Pressione 998
Cambiamento No Significant change. Runway 15: Frost, 51-100% contamination with 1mm, friction coefficient 0.38.
Grezzo UWWW 300730Z 15009MPS 9000 -RA OVC008 02/M01 Q0998 R15/390138 NOSIG RMK QFE737/0983

MVFR

1°C / -1°C

[Più]
Vento 160º 16kt
Visibilità 5000m
Tempo Light Showers Rain 3.00mm precipitation
Nuvole Vertical Visibility of 0ft.
Pressione 999
Cambiamento No Significant change. Runway 15: Frost, 51-100% contamination with 1mm, friction coefficient 0.38.
Grezzo UWWW 300700Z 16008MPS 5000 -SHRA BKN010CB 01/M01 Q0999 R15/390138 NOSIG RMK QFE738/0984

MVFR

1°C / -2°C

[Più]
Vento 170º 16kt
Visibilità 7000m
Tempo Light Showers Rain 3.00mm precipitation
Nuvole Vertical Visibility of 0ft.
Pressione 1000
Cambiamento No Significant change. Runway 15: Frost, 51-100% contamination with 1mm, friction coefficient 0.38.
Grezzo UWWW 300630Z 17008MPS 7000 -SHRA BKN013CB 01/M02 Q1000 R15/390138 NOSIG RMK QFE739/0985

VFR

1°C / -2°C

[Più]
Vento 160º 16kt
Visibilità 9000m
Tempo Light Rain 1.00mm precipitation
Nuvole Vertical Visibility of 0ft.
Pressione 1001
Cambiamento No Significant change. Runway 15: Frost, 51-100% contamination with 1mm, friction coefficient 0.38.
Grezzo UWWW 300600Z 16008MPS 9000 -RA SCT026 01/M02 Q1001 R15/390138 NOSIG RMK QFE739/0986

VFR

1°C / -3°C

[Più]
Vento 170º 19kt
Visibilità >10km
Tempo Light Rain 1.00mm precipitation
Nuvole Vertical Visibility of 0ft.
Pressione 1001
Cambiamento No Significant change. Runway 15: Frost, 51-100% contamination with 1mm, friction coefficient 0.38.
Grezzo UWWW 300530Z 17010MPS 9999 -RA SCT033 01/M03 Q1001 R15/390138 NOSIG RMK QFE739/0986

VFR

0°C / -3°C

[Più]
Vento 170º 19kt
Visibilità >10km
Tempo Light freezing Rain 3.00mm precipitation
Nuvole Vertical Visibility of 0ft.
Pressione 1002
Cambiamento No Significant change. Runway 15: Frost, 51-100% contamination with 1mm, friction coefficient 0.38.
Grezzo UWWW 300500Z 17010MPS 9999 -FZRA SCT033 M00/M03 Q1002 R15/390138 NOSIG RMK QFE740/0987

VFR

0°C / -4°C

[Più]
Vento 170º 21kt
Visibilità >10km
Tempo Light freezing Rain 3.00mm precipitation
Nuvole Vertical Visibility of 0ft.
Pressione 1003
Cambiamento No Significant change. Runway 15: Frost, 51-100% contamination with 1mm, friction coefficient 0.38.
Grezzo UWWW 300430Z 17011MPS 9999 -FZRA SCT033 M00/M04 Q1003 R15/390138 NOSIG RMK QFE741/0988

VFR

0°C / -4°C

[Più]
Vento 150º 17kt Gust 27kt
Visibilità >10km
Tempo Light freezing Rain 3.00mm precipitation
Nuvole Vertical Visibility of 0ft.
Pressione 1001
Cambiamento No Significant change. Runway 15: Frost, 51-100% contamination with 1mm, friction coefficient 0.38.
Grezzo UWWW 300400Z 15009G14MPS 9999 -FZRA SCT033 M00/M04 Q1001 R15/390138 NOSIG RMK QFE740/0986

VFR

0°C / -4°C

[Più]
Vento 150º 16kt
Visibilità >10km
Tempo Light freezing Rain 3.00mm precipitation
Nuvole Vertical Visibility of 0ft.
Pressione 1003
Cambiamento No Significant change. Runway 15: Frost, 51-100% contamination with 1mm, friction coefficient 0.38.
Grezzo UWWW 300330Z 15008MPS 9999 -FZRA SCT033 M00/M04 Q1003 R15/390138 NOSIG RMK QFE740/0987

VFR

-1°C / -4°C

[Più]
Vento 150º 14kt
Visibilità >10km
Tempo Light freezing Rain 3.00mm precipitation
Nuvole Vertical Visibility of 0ft.
Pressione 1003
Cambiamento No Significant change. Runway 15: Wet snow, 51-100% contamination with 2mm, friction coefficient 0.40.
Grezzo UWWW 300300Z 15007MPS 9999 -FZRA SCT033 M01/M04 Q1003 R15/590240 NOSIG RMK QFE741/0988

VFR

0°C / -3°C

[Più]
Vento 140º 17kt
Visibilità 9000m
Tempo Light Rain 1.00mm precipitation
Nuvole Vertical Visibility of 0ft.
Pressione 1004
Cambiamento No Significant change. Runway 15: Wet snow, 51-100% contamination with 2mm, friction coefficient 0.40.
Grezzo UWWW 300230Z 14009MPS 9000 -RA SCT033 00/M03 Q1004 R15/590240 NOSIG RMK QFE742/0989

MVFR

0°C / -3°C

[Più]
Vento 140º 16kt
Visibilità >10km
Tempo Light Rain 1.00mm precipitation
Nuvole Vertical Visibility of 0ft.
Pressione 1005
Cambiamento Temporary: 15016MPS RMK QFE743/0990 . Runway 15: Wet snow, 26-50% contamination with 2mm, friction coefficient 0.50.
Grezzo UWWW 300200Z 14008MPS 9999 -RA BKN020 00/M03 Q1005 R15/550250 TEMPO 15016MPS RMK QFE743/0990

MVFR

0°C / -4°C

[Più]
Vento 150º 16kt
Visibilità >10km
Tempo Light Rain 1.00mm precipitation
Nuvole Vertical Visibility of 0ft.
Pressione 1006
Cambiamento Temporary: 15016MPS RMK QFE743/0991 . Runway 15: Wet snow, 26-50% contamination with 2mm, friction coefficient 0.50.
Grezzo UWWW 300130Z 15008MPS 9999 -RA BKN018 00/M04 Q1006 R15/550250 TEMPO 15016MPS RMK QFE743/0991

MVFR

1°C / -3°C

[Più]
Vento 140º 17kt
Visibilità >10km
Tempo -
Nuvole Broken Clouds 1700ft
Pressione 1006
Cambiamento Temporary: 15016MPS RMK QFE743/0991 . Runway 15: Wet snow, 26-50% contamination with 2mm, friction coefficient 0.50.
Grezzo UWWW 300100Z 14009MPS 9999 BKN017 01/M03 Q1006 R15/550250 TEMPO 15016MPS RMK QFE743/0991

TAF per 53.5°N 50.15°E (UWWW)

From till


Maximum Temperature 4ºC on . Minimum Temperature 1ºC on .
From till Wind 170º 16kt. Gust 27kt. Visibility 6000m. Light Rain . Broken Clouds 500ft.
Temporarly from till Wind 190º 25kt. Gust 39kt. Visibility 804.670m. Heavy Showers Rain . Broken Clouds 300ft. Broken Clouds 800ft.
Temporarly from till Wind 140º 6kt. Gust 17kt. Visibility 305.775m. Heavy Snow Heavy Rain Fog . Obscured Sky.

Grezzo: TAF UWWW 301059Z 3012/0112 17008G14MPS 6000 -RA BKN005 TX04/3018Z TN01/0111Z TEMPO 3012/3018 19013G20MPS 0800 +SHRA BKN003 BKN008CB TEMPO 3018/0112 14003G09MPS 0300 +SNRA FG VV002

Tempo in atto per 53.5°N 50.15°E: immagine satellitare e pioggia

Il segnaposto è situato a 53.5°N 50.15°E. [Più]

L'immagine satellitare in tempo reale combina la luce visibile durante il giorno con la radiazione infrarossa durante la notte. Di notte l'immagine non è scura poiché i raggi infrarossi possono rilevare differenze di temperatura. Purtroppo, le nuvole basse e la nebbia sono difficili da distinguere dalla temperatura del suolo e possono pertanto essere quasi invisibili durante la notte. Le immagini satellitari Meteosat per l'Europa vengono aggiornate in tempo reale ogni 5 minuti. Le immagini GOES-16 / GOES-17 (Nord e Sud America) e Himawari (Asia) vengono aggiornate ogni 10 minuti.

Copyright 2021 EUMETSAT / meteoblue. / Copyright 2021 meteoblue

Radar e nowcasting per 53.5°N 50.15°E

Pioviggine
Lieve
Moderato
Forte
Molto forte
Grandine

Il segnaposto è situato a 53.5°N 50.15°E. Questa animazione mostra il radar delle precipitazioni per l'ultima ora, nonché una previsione 1h. Una pioviggine o una leggera caduta di neve potrebbero essere invisibili per il radar. L'intensità delle precipitazioni è codificata a colori, dal blu chiaro all'arancione.